createdAt,value
2019-03-21T00:00:15.292Z,3.19
2019-03-21T00:02:43.773Z,3.11
2019-03-21T00:05:12.804Z,3.14
2019-03-21T00:07:41.376Z,3.20
2019-03-21T00:10:41.645Z,3.05
2019-03-21T00:13:11.724Z,3.06
2019-03-21T00:15:42.709Z,2.99
2019-03-21T00:18:13.470Z,3.11
2019-03-21T00:20:42.427Z,2.93
2019-03-21T00:23:10.650Z,2.87
2019-03-21T00:25:39.030Z,2.84
2019-03-21T00:28:07.607Z,2.77
2019-03-21T00:30:37.732Z,2.78
2019-03-21T00:33:06.706Z,2.76
2019-03-21T00:35:35.512Z,2.65
2019-03-21T00:38:04.194Z,2.53
2019-03-21T00:40:36.281Z,2.56
2019-03-21T00:43:07.112Z,2.49
2019-03-21T00:45:35.434Z,2.41
2019-03-21T00:48:05.364Z,2.52
2019-03-21T00:50:36.678Z,2.53
2019-03-21T00:53:05.439Z,2.40
2019-03-21T00:55:34.851Z,2.49
2019-03-21T00:58:03.875Z,2.38
2019-03-21T01:00:40.823Z,2.31
2019-03-21T01:03:11.085Z,2.30
2019-03-21T01:05:39.924Z,2.24
2019-03-21T01:08:08.039Z,2.24
2019-03-21T01:10:37.230Z,2.19
2019-03-21T01:13:10.307Z,2.23
2019-03-21T01:15:38.831Z,2.22
2019-03-21T01:18:07.307Z,2.19
2019-03-21T01:20:38.027Z,2.11
2019-03-21T01:23:06.589Z,2.01
2019-03-21T01:25:40.251Z,2.04
2019-03-21T01:28:09.196Z,2.00
2019-03-21T01:30:38.425Z,1.96
2019-03-21T01:33:09.365Z,2.00
2019-03-21T01:35:39.911Z,2.07
2019-03-21T01:38:08.987Z,2.03
2019-03-21T01:40:39.057Z,2.02
2019-03-21T01:43:08.730Z,1.89
2019-03-21T01:45:37.983Z,1.95
2019-03-21T01:48:07.139Z,2.08
2019-03-21T01:50:35.788Z,2.03
2019-03-21T01:53:04.415Z,1.99
2019-03-21T01:55:32.766Z,1.95
2019-03-21T01:58:01.207Z,1.87
2019-03-21T02:00:33.385Z,1.86
2019-03-21T02:03:01.816Z,1.84
2019-03-21T02:05:30.635Z,1.75
2019-03-21T02:07:59.431Z,1.71
2019-03-21T02:10:28.530Z,1.60
2019-03-21T02:12:56.880Z,1.61
2019-03-21T02:15:25.485Z,1.56
2019-03-21T02:20:41.096Z,1.61
2019-03-21T02:23:09.851Z,1.58
2019-03-21T02:25:38.558Z,1.57
2019-03-21T02:28:11.066Z,1.53
2019-03-21T02:30:42.973Z,1.52
2019-03-21T02:33:25.226Z,1.51
2019-03-21T02:35:54.024Z,1.45
2019-03-21T02:38:22.590Z,1.50
2019-03-21T02:40:51.349Z,1.40
2019-03-21T02:43:20.201Z,1.33
2019-03-21T02:45:49.362Z,1.38
2019-03-21T02:48:17.846Z,1.44
2019-03-21T02:50:46.076Z,1.30
2019-03-21T02:53:14.422Z,1.26
2019-03-21T02:55:42.613Z,1.34
2019-03-21T02:58:10.787Z,1.21
2019-03-21T03:00:39.115Z,1.33
2019-03-21T03:03:08.124Z,1.14
2019-03-21T03:05:36.430Z,1.17
2019-03-21T03:08:05.175Z,1.20
2019-03-21T03:10:41.817Z,1.20
2019-03-21T03:13:10.435Z,1.15
2019-03-21T03:15:38.865Z,1.13
2019-03-21T03:18:07.277Z,1.17
2019-03-21T03:20:35.341Z,1.07
2019-03-21T03:23:04.423Z,1.11
2019-03-21T03:25:33.079Z,1.03
2019-03-21T03:28:15.367Z,0.98
2019-03-21T03:30:43.992Z,1.07
2019-03-21T03:33:12.916Z,1.04
2019-03-21T03:35:41.744Z,0.93
2019-03-21T03:38:10.608Z,0.86
2019-03-21T03:40:42.909Z,0.75
2019-03-21T03:43:11.805Z,0.76
2019-03-21T03:45:40.363Z,0.74
2019-03-21T03:48:08.670Z,0.75
2019-03-21T03:50:37.882Z,0.63
2019-03-21T03:53:06.466Z,0.58
2019-03-21T03:55:35.274Z,0.66
2019-03-21T03:58:06.235Z,0.69
2019-03-21T04:00:34.967Z,0.64
2019-03-21T04:03:03.636Z,0.61
2019-03-21T04:05:31.891Z,0.64
2019-03-21T04:08:00.197Z,0.59
2019-03-21T04:10:32.197Z,0.67
2019-03-21T04:13:01.014Z,0.51
2019-03-21T04:15:29.769Z,0.54
2019-03-21T04:17:58.661Z,0.54
2019-03-21T04:20:29.469Z,0.47
2019-03-21T04:22:58.304Z,0.50
2019-03-21T04:25:35.231Z,0.43
2019-03-21T04:28:04.529Z,0.40
2019-03-21T04:30:33.389Z,0.34
2019-03-21T04:33:01.471Z,0.40
2019-03-21T04:35:30.490Z,0.44
2019-03-21T04:37:58.666Z,0.35
2019-03-21T04:40:27.319Z,0.30
2019-03-21T04:42:55.825Z,0.30
2019-03-21T04:45:24.711Z,0.34
2019-03-21T04:47:52.953Z,0.38
2019-03-21T04:50:23.884Z,0.28
2019-03-21T04:52:52.413Z,0.27
2019-03-21T04:55:21.035Z,0.23
2019-03-21T04:57:49.422Z,0.19
2019-03-21T05:00:24.937Z,0.18
2019-03-21T05:02:56.094Z,0.18
2019-03-21T05:05:26.481Z,0.21
2019-03-21T05:07:55.040Z,0.11
2019-03-21T05:10:23.702Z,0.08
2019-03-21T05:12:52.785Z,0.04
2019-03-21T05:15:33.370Z,-0.01
2019-03-21T05:18:09.268Z,-0.01
2019-03-21T05:20:37.737Z,-0.15
2019-03-21T05:23:06.936Z,-0.11
2019-03-21T05:25:35.503Z,0.00
2019-03-21T05:28:04.056Z,-0.06
2019-03-21T05:30:38.297Z,-0.08
2019-03-21T05:33:07.362Z,-0.10
2019-03-21T05:35:36.494Z,-0.13
2019-03-21T05:38:05.123Z,-0.11
2019-03-21T05:40:34.327Z,-0.02
2019-03-21T05:43:07.489Z,0.13
2019-03-21T05:45:36.355Z,0.22
2019-03-21T05:48:05.128Z,0.24
2019-03-21T05:50:33.599Z,0.21
2019-03-21T05:53:02.604Z,0.30
2019-03-21T05:55:31.076Z,0.37
2019-03-21T05:57:59.420Z,0.24
2019-03-21T06:00:33.201Z,0.30
2019-03-21T06:03:01.922Z,0.25
2019-03-21T06:05:30.157Z,0.35
2019-03-21T06:08:21.935Z,0.43
2019-03-21T06:10:50.781Z,0.51
2019-03-21T06:13:19.382Z,0.65
2019-03-21T06:15:48.278Z,0.70
2019-03-21T06:19:06.039Z,0.81
2019-03-21T06:22:34.300Z,0.90
2019-03-21T06:25:47.694Z,1.01
2019-03-21T06:28:15.657Z,1.09
2019-03-21T06:30:43.756Z,1.12
2019-03-21T06:33:11.825Z,1.16
2019-03-21T06:35:41.494Z,1.25
2019-03-21T06:38:10.191Z,1.33
2019-03-21T06:40:39.099Z,1.39
2019-03-21T06:43:08.121Z,1.47
2019-03-21T06:45:47.280Z,1.54
2019-03-21T06:48:07.054Z,1.66
2019-03-21T06:50:35.201Z,1.74
2019-03-21T06:53:04.134Z,1.86
2019-03-21T06:55:32.707Z,2.00
2019-03-21T06:58:01.077Z,2.15
2019-03-21T07:00:29.374Z,2.40
2019-03-21T07:02:58.283Z,2.56
2019-03-21T07:05:26.829Z,2.74
2019-03-21T07:07:55.479Z,3.10
2019-03-21T07:10:24.142Z,3.62
2019-03-21T07:12:53.256Z,4.04
2019-03-21T07:15:22.201Z,4.81
2019-03-21T07:17:51.076Z,5.40
2019-03-21T07:20:19.638Z,5.92
2019-03-21T07:22:47.760Z,6.40
2019-03-21T07:25:17.478Z,6.74
2019-03-21T07:27:45.623Z,7.20
2019-03-21T07:30:14.909Z,7.47
2019-03-21T07:32:43.785Z,7.74
2019-03-21T07:35:12.536Z,8.26
2019-03-21T07:37:40.839Z,8.74
2019-03-21T07:40:10.871Z,9.20
2019-03-21T07:42:38.924Z,9.51
2019-03-21T07:45:08.085Z,9.91
2019-03-21T07:47:37.074Z,10.33
2019-03-21T07:50:06.583Z,10.50
2019-03-21T07:52:35.783Z,10.81
2019-03-21T07:55:07.024Z,11.14
2019-03-21T07:57:35.561Z,11.43
2019-03-21T08:00:07.346Z,11.85
2019-03-21T08:02:35.626Z,11.99
2019-03-21T08:05:07.015Z,12.10
2019-03-21T08:07:35.534Z,12.39
2019-03-21T08:10:04.849Z,12.66
2019-03-21T08:12:33.299Z,12.89
2019-03-21T08:15:01.906Z,13.17
2019-03-21T08:17:30.275Z,13.57
2019-03-21T08:19:58.495Z,14.05
2019-03-21T08:22:27.020Z,14.56
2019-03-21T08:24:55.522Z,14.89
2019-03-21T08:27:23.672Z,15.10
2019-03-21T08:29:52.021Z,14.85
2019-03-21T08:32:20.877Z,15.23
2019-03-21T08:34:49.077Z,15.39
2019-03-21T08:37:17.288Z,15.57
2019-03-21T08:39:45.835Z,15.76
2019-03-21T08:42:14.825Z,16.09
2019-03-21T08:44:43.073Z,16.19
2019-03-21T08:47:11.589Z,16.57
2019-03-21T08:49:40.794Z,16.68
2019-03-21T08:52:09.518Z,17.09
2019-03-21T08:54:38.452Z,17.33
2019-03-21T08:57:06.734Z,17.86
2019-03-21T08:59:35.970Z,17.93
2019-03-21T09:02:04.587Z,18.07
2019-03-21T09:04:33.376Z,18.44
2019-03-21T09:07:02.277Z,18.64
2019-03-21T09:09:31.274Z,18.26
2019-03-21T09:12:00.209Z,18.21
2019-03-21T09:14:28.697Z,18.77
2019-03-21T09:16:57.325Z,18.86
2019-03-21T09:19:25.385Z,18.82
2019-03-21T09:21:53.904Z,18.72
2019-03-21T09:24:22.117Z,19.09
2019-03-21T09:26:50.417Z,18.73
2019-03-21T09:29:19.105Z,19.55
2019-03-21T09:31:47.534Z,19.94
2019-03-21T09:34:15.706Z,19.85
2019-03-21T09:36:44.223Z,19.92
2019-03-21T09:39:13.239Z,20.01
2019-03-21T09:41:41.722Z,20.29
2019-03-21T09:44:10.011Z,20.34
2019-03-21T09:46:50.078Z,20.18
2019-03-21T09:49:09.355Z,20.59
2019-03-21T09:51:38.213Z,20.54
2019-03-21T09:54:09.882Z,20.70
2019-03-21T09:56:36.374Z,20.87
2019-03-21T09:59:06.582Z,20.86
2019-03-21T10:01:34.975Z,20.99
2019-03-21T10:04:03.576Z,21.11
2019-03-21T10:06:32.013Z,20.95
2019-03-21T10:09:00.198Z,21.17
2019-03-21T10:11:28.704Z,21.21
2019-03-21T10:13:57.419Z,21.38
2019-03-21T10:16:26.098Z,21.78
2019-03-21T10:18:54.286Z,21.97
2019-03-21T10:21:22.610Z,22.10
2019-03-21T10:23:51.669Z,22.17
2019-03-21T10:26:20.260Z,22.10
2019-03-21T10:28:48.553Z,22.26
2019-03-21T10:31:16.750Z,22.35
2019-03-21T10:33:46.041Z,22.44
2019-03-21T10:36:16.127Z,22.65
2019-03-21T10:38:44.630Z,22.85
2019-03-21T10:41:13.315Z,23.14
2019-03-21T10:43:41.737Z,23.32
2019-03-21T10:46:10.166Z,23.27
2019-03-21T10:48:38.706Z,23.24
2019-03-21T10:51:07.435Z,23.63
2019-03-21T10:53:36.063Z,23.69
2019-03-21T10:56:06.083Z,24.03
2019-03-21T10:58:34.793Z,24.37
2019-03-21T11:01:03.753Z,24.20
2019-03-21T11:03:32.252Z,24.43
2019-03-21T11:06:00.615Z,24.98
2019-03-21T11:08:29.134Z,24.82
2019-03-21T11:10:58.033Z,25.10
2019-03-21T11:13:27.128Z,25.11
2019-03-21T11:15:56.123Z,25.17
2019-03-21T11:18:35.527Z,25.19
2019-03-21T11:20:54.658Z,25.18
2019-03-21T11:23:23.484Z,25.35
2019-03-21T11:25:52.506Z,25.26
2019-03-21T11:28:21.276Z,25.21
2019-03-21T11:30:49.814Z,25.79
2019-03-21T11:33:18.363Z,25.45
2019-03-21T11:35:48.212Z,25.25
2019-03-21T11:38:17.037Z,25.40
2019-03-21T11:40:48.259Z,25.19
2019-03-21T11:43:17.376Z,25.34
2019-03-21T11:45:47.804Z,25.31
2019-03-21T11:48:16.980Z,25.13
2019-03-21T11:50:45.432Z,25.15
2019-03-21T11:53:13.999Z,25.02
2019-03-21T11:55:42.662Z,25.15
2019-03-21T11:58:12.102Z,25.19
2019-03-21T12:00:45.358Z,25.23
2019-03-21T12:03:13.610Z,24.83
2019-03-21T12:05:42.328Z,24.97
2019-03-21T12:08:10.868Z,24.98
2019-03-21T12:10:39.335Z,24.73
2019-03-21T12:13:07.806Z,24.69
2019-03-21T12:15:36.503Z,24.35
2019-03-21T12:18:05.227Z,24.53
2019-03-21T12:20:35.737Z,24.28
2019-03-21T12:23:04.861Z,24.37
2019-03-21T12:25:33.240Z,24.54
2019-03-21T12:28:02.080Z,24.42
2019-03-21T12:30:50.329Z,24.54
2019-03-21T12:33:20.605Z,24.08
2019-03-21T12:35:50.104Z,24.07
2019-03-21T12:38:19.396Z,24.13
2019-03-21T12:40:47.664Z,24.03
2019-03-21T12:43:16.698Z,23.64
2019-03-21T12:45:45.232Z,23.24
2019-03-21T12:48:13.528Z,23.06
2019-03-21T12:50:41.944Z,22.75
2019-03-21T12:53:10.149Z,22.45
2019-03-21T12:55:39.210Z,22.35
2019-03-21T12:58:07.939Z,22.21
2019-03-21T13:00:41.479Z,21.95
2019-03-21T13:03:10.261Z,21.80
2019-03-21T13:05:39.261Z,21.87
2019-03-21T13:08:07.570Z,21.46
2019-03-21T13:10:36.334Z,21.26
2019-03-21T13:13:05.633Z,20.97
2019-03-21T13:15:34.742Z,20.75
2019-03-21T13:18:04.655Z,20.63
2019-03-21T13:20:32.952Z,20.62
2019-03-21T13:23:01.172Z,20.33
2019-03-21T13:25:29.812Z,20.22
2019-03-21T13:27:59.039Z,19.88
2019-03-21T13:30:27.631Z,19.88
2019-03-21T13:32:56.324Z,19.87
2019-03-21T13:35:32.720Z,19.74
2019-03-21T13:37:54.711Z,19.58
2019-03-21T13:40:23.504Z,19.46
2019-03-21T13:42:51.738Z,19.15
2019-03-21T13:45:19.956Z,18.98
2019-03-21T13:47:48.249Z,19.03
2019-03-21T13:50:16.734Z,19.03
2019-03-21T13:52:45.458Z,18.87
2019-03-21T13:55:14.007Z,18.90
2019-03-21T13:57:42.204Z,18.82
2019-03-21T14:00:14.225Z,18.50
2019-03-21T14:02:42.428Z,18.51
2019-03-21T14:05:11.257Z,18.45
2019-03-21T14:07:39.889Z,18.41
2019-03-21T14:10:09.394Z,18.34
2019-03-21T14:12:38.356Z,18.33
2019-03-21T14:15:07.732Z,18.31
2019-03-21T14:17:36.280Z,18.20
2019-03-21T14:20:06.727Z,18.13
2019-03-21T14:22:35.652Z,18.13
2019-03-21T14:25:05.559Z,18.19
2019-03-21T14:27:34.080Z,18.14
2019-03-21T14:30:02.872Z,18.18
2019-03-21T14:32:31.376Z,18.22
2019-03-21T14:35:00.174Z,18.24
2019-03-21T14:37:28.708Z,18.09
2019-03-21T14:39:56.949Z,18.11
2019-03-21T14:42:25.948Z,18.15
2019-03-21T14:44:54.283Z,17.99
2019-03-21T14:47:23.065Z,18.00
2019-03-21T14:49:53.104Z,17.98
2019-03-21T14:52:22.288Z,17.96
2019-03-21T14:54:50.475Z,18.00
2019-03-21T14:57:19.545Z,17.85
2019-03-21T14:59:47.956Z,17.87
2019-03-21T15:02:16.849Z,17.76
2019-03-21T15:04:45.409Z,17.69
2019-03-21T15:07:14.279Z,17.74
2019-03-21T15:09:43.229Z,17.78
2019-03-21T15:12:11.627Z,17.80
2019-03-21T15:14:40.826Z,17.72
2019-03-21T15:17:09.713Z,17.82
2019-03-21T15:19:39.346Z,17.88
2019-03-21T15:22:08.218Z,17.78
2019-03-21T15:24:37.572Z,17.80
2019-03-21T15:27:06.339Z,17.71
2019-03-21T15:29:35.523Z,17.56
2019-03-21T15:32:04.129Z,17.61
2019-03-21T15:34:32.596Z,17.49
2019-03-21T15:37:00.826Z,17.56
2019-03-21T15:39:29.238Z,17.54
2019-03-21T15:41:58.783Z,17.46
2019-03-21T15:44:27.157Z,17.52
2019-03-21T15:46:55.419Z,17.48
2019-03-21T15:49:23.534Z,17.42
2019-03-21T15:51:51.853Z,17.18
2019-03-21T15:54:20.748Z,17.23
2019-03-21T15:56:49.108Z,17.28
2019-03-21T15:59:17.797Z,17.21
2019-03-21T16:01:46.311Z,17.04
2019-03-21T16:04:15.326Z,16.96
2019-03-21T16:06:43.838Z,17.00
2019-03-21T16:09:12.239Z,16.95
2019-03-21T16:11:41.118Z,16.72
2019-03-21T16:14:10.326Z,16.69
2019-03-21T16:16:38.922Z,16.59
2019-03-21T16:19:07.171Z,16.72
2019-03-21T16:21:35.424Z,16.68
2019-03-21T16:24:06.086Z,16.65
2019-03-21T16:26:36.823Z,16.56
2019-03-21T16:29:05.647Z,16.45
2019-03-21T16:31:34.183Z,16.54
2019-03-21T16:34:03.227Z,16.43
2019-03-21T16:36:31.361Z,16.41
2019-03-21T16:38:59.992Z,16.35
2019-03-21T16:41:28.649Z,16.19
2019-03-21T16:43:57.444Z,16.19
2019-03-21T16:46:26.101Z,16.23
2019-03-21T16:48:54.433Z,16.10
2019-03-21T16:51:23.129Z,16.14
2019-03-21T16:53:52.001Z,16.11
2019-03-21T16:56:20.969Z,15.99
2019-03-21T16:58:49.286Z,15.92
2019-03-21T17:01:18.954Z,15.89
2019-03-21T17:03:47.389Z,15.75
2019-03-21T17:06:16.281Z,15.68
2019-03-21T17:08:44.541Z,15.69
2019-03-21T17:11:18.355Z,15.50
2019-03-21T17:13:47.218Z,15.45
2019-03-21T17:16:15.404Z,15.42
2019-03-21T17:18:43.905Z,15.40
2019-03-21T17:21:12.979Z,15.34
2019-03-21T17:23:49.239Z,15.21
2019-03-21T17:26:20.945Z,15.12
2019-03-21T17:28:50.091Z,14.84
2019-03-21T17:31:18.643Z,14.86
2019-03-21T17:33:57.693Z,14.89
2019-03-21T17:36:26.745Z,14.80
2019-03-21T17:38:55.566Z,14.67
2019-03-21T17:41:26.844Z,14.53
2019-03-21T17:43:55.025Z,14.44
2019-03-21T17:46:24.042Z,14.28
2019-03-21T17:48:53.133Z,14.24
2019-03-21T17:51:21.525Z,14.26
2019-03-21T17:53:51.119Z,14.02
2019-03-21T17:56:20.034Z,13.94
2019-03-21T17:58:49.865Z,14.01
2019-03-21T18:01:18.289Z,14.01
2019-03-21T18:03:47.122Z,13.79
2019-03-21T18:06:15.811Z,13.85
2019-03-21T18:08:44.325Z,13.71
2019-03-21T18:11:12.975Z,13.52
2019-03-21T18:13:41.170Z,13.45
2019-03-21T18:16:09.502Z,13.33
2019-03-21T18:18:37.681Z,13.15
2019-03-21T18:21:05.791Z,13.23
2019-03-21T18:23:35.479Z,13.09
2019-03-21T18:26:03.803Z,12.99
2019-03-21T18:28:32.804Z,13.01
2019-03-21T18:31:01.036Z,12.84
2019-03-21T18:33:29.765Z,12.83
2019-03-21T18:35:58.258Z,12.90
2019-03-21T18:38:27.699Z,12.92
2019-03-21T18:40:56.659Z,12.90
2019-03-21T18:43:25.144Z,12.89
2019-03-21T18:45:54.602Z,12.75
2019-03-21T18:48:22.780Z,12.60
2019-03-21T18:50:51.215Z,12.41
2019-03-21T18:53:19.986Z,12.25
2019-03-21T18:55:48.655Z,12.30
2019-03-21T18:58:24.063Z,12.20
2019-03-21T19:00:52.883Z,12.21
2019-03-21T19:03:21.428Z,12.14
2019-03-21T19:05:57.237Z,12.10
2019-03-21T19:08:28.679Z,11.90
2019-03-21T19:10:57.002Z,11.88
2019-03-21T19:13:25.922Z,11.86
2019-03-21T19:15:54.842Z,11.86
2019-03-21T19:18:23.423Z,11.89
2019-03-21T19:20:52.396Z,11.74
2019-03-21T19:23:21.646Z,11.65
2019-03-21T19:25:49.927Z,11.59
2019-03-21T19:28:18.081Z,11.59
2019-03-21T19:30:46.654Z,11.38
2019-03-21T19:33:15.268Z,11.35
2019-03-21T19:35:46.780Z,11.38
2019-03-21T19:38:14.640Z,11.20
2019-03-21T19:40:43.458Z,11.19
2019-03-21T19:43:12.218Z,11.15
2019-03-21T19:45:40.985Z,11.06
2019-03-21T19:48:09.942Z,10.93
2019-03-21T19:50:38.209Z,10.88
2019-03-21T19:53:13.026Z,10.80
2019-03-21T19:55:42.463Z,10.85
2019-03-21T19:58:11.969Z,10.53
2019-03-21T20:00:40.569Z,10.64
2019-03-21T20:03:09.087Z,10.66
2019-03-21T20:05:37.870Z,10.57
2019-03-21T20:08:06.452Z,10.32
2019-03-21T20:10:35.809Z,10.30
2019-03-21T20:13:06.435Z,10.38
2019-03-21T20:15:35.161Z,10.26
2019-03-21T20:18:03.746Z,10.19
2019-03-21T20:20:32.284Z,10.10
2019-03-21T20:23:00.343Z,9.88
2019-03-21T20:25:29.094Z,9.52
2019-03-21T20:27:57.349Z,9.51
2019-03-21T20:30:27.554Z,9.53
2019-03-21T20:32:58.251Z,9.64
2019-03-21T20:35:26.562Z,9.62
2019-03-21T20:37:55.091Z,9.41
2019-03-21T20:40:23.717Z,9.25
2019-03-21T20:42:51.950Z,9.43
2019-03-21T20:45:21.865Z,9.47
2019-03-21T20:47:50.634Z,9.53
2019-03-21T20:50:20.082Z,9.53
2019-03-21T20:52:50.135Z,9.45
2019-03-21T20:55:20.538Z,9.32
2019-03-21T20:57:48.785Z,9.30
2019-03-21T21:00:19.815Z,9.11
2019-03-21T21:02:49.450Z,9.34
2019-03-21T21:05:18.314Z,9.21
2019-03-21T21:07:47.585Z,9.04
2019-03-21T21:10:16.518Z,9.05
2019-03-21T21:12:45.118Z,8.96
2019-03-21T21:15:14.490Z,8.80
2019-03-21T21:17:43.324Z,8.58
2019-03-21T21:20:13.949Z,8.58
2019-03-21T21:22:42.477Z,8.52
2019-03-21T21:25:12.133Z,8.50
2019-03-21T21:27:49.231Z,8.42
2019-03-21T21:30:13.188Z,8.20
2019-03-21T21:32:41.504Z,8.28
2019-03-21T21:35:10.269Z,8.27
2019-03-21T21:37:39.042Z,8.25
2019-03-21T21:40:09.054Z,8.18
2019-03-21T21:42:38.151Z,8.05
2019-03-21T21:45:08.928Z,8.13
2019-03-21T21:47:37.593Z,8.11
2019-03-21T21:50:08.693Z,8.15
2019-03-21T21:52:41.975Z,8.06
2019-03-21T21:55:07.841Z,8.07
2019-03-21T21:57:37.388Z,7.94
2019-03-21T22:00:09.694Z,7.98
2019-03-21T22:02:38.283Z,7.85
2019-03-21T22:05:07.145Z,7.75
2019-03-21T22:07:35.587Z,7.87
2019-03-21T22:10:05.725Z,7.80
2019-03-21T22:12:36.791Z,7.83
2019-03-21T22:15:07.749Z,7.64
2019-03-21T22:17:36.034Z,7.49
2019-03-21T22:20:05.795Z,7.61
2019-03-21T22:22:35.143Z,7.48
2019-03-21T22:25:05.060Z,7.41
2019-03-21T22:27:33.970Z,7.26
2019-03-21T22:30:04.363Z,7.31
2019-03-21T22:32:34.776Z,7.23
2019-03-21T22:35:03.999Z,7.18
2019-03-21T22:37:32.438Z,7.10
2019-03-21T22:40:03.663Z,7.06
2019-03-21T22:42:36.109Z,7.07
2019-03-21T22:45:06.382Z,6.98
2019-03-21T22:47:34.685Z,6.89
2019-03-21T22:50:04.570Z,6.67
2019-03-21T22:52:33.186Z,6.60
2019-03-21T22:55:01.444Z,6.73
2019-03-21T22:57:31.051Z,6.49
2019-03-21T22:59:58.978Z,6.44
2019-03-21T23:02:27.612Z,6.60
2019-03-21T23:04:56.352Z,6.46
2019-03-21T23:07:24.663Z,6.45
2019-03-21T23:09:53.398Z,6.37
2019-03-21T23:12:21.963Z,6.41
2019-03-21T23:14:50.553Z,6.43
2019-03-21T23:17:18.765Z,6.18
2019-03-21T23:19:46.881Z,6.16
2019-03-21T23:22:15.146Z,6.12
2019-03-21T23:24:43.240Z,6.21
2019-03-21T23:27:12.089Z,6.11
2019-03-21T23:29:40.264Z,6.26
2019-03-21T23:32:09.099Z,6.03
2019-03-21T23:34:37.613Z,6.08
2019-03-21T23:37:07.445Z,5.98
2019-03-21T23:39:35.564Z,5.78
2019-03-21T23:42:04.309Z,5.70
2019-03-21T23:44:33.733Z,5.66
2019-03-21T23:47:02.199Z,5.78
2019-03-21T23:49:31.271Z,5.92
2019-03-21T23:51:59.637Z,5.77
2019-03-21T23:54:28.354Z,5.69
2019-03-21T23:57:04.516Z,5.62
2019-03-21T23:59:27.661Z,5.63
